Time;durP1;ratioP1;P1;durP2;ratioP2;P2;SDS_P1;SDS_P2;PMS_P1;PMS_P2;Temp;Humidity;BMP_temperature;BMP_pressure;BME280_temperature;BME280_humidity;BME280_pressure;Samples;Min_cycle;Max_cycle;Signal;HPM_P1;HPM_P2
2023/07/30 00:00:45;;;;;;;3.78;2.40;;;17.60;99.90;;;;;;5051480;28;20236;-49
2023/07/30 00:03:10;;;;;;;3.47;2.75;;;17.60;99.90;;;;;;5050717;28;20178;-49
2023/07/30 00:05:36;;;;;;;8.43;3.03;;;17.60;99.90;;;;;;5052140;28;20170;-49
2023/07/30 00:08:02;;;;;;;6.40;2.83;;;17.50;99.90;;;;;;5051315;28;20171;-49
2023/07/30 00:10:27;;;;;;;8.60;2.90;;;17.50;99.90;;;;;;5051468;28;20216;-49
2023/07/30 00:12:53;;;;;;;11.95;3.38;;;17.50;99.90;;;;;;5051249;28;20283;-49
2023/07/30 00:15:18;;;;;;;7.32;3.08;;;17.50;99.90;;;;;;5051420;28;20170;-51
2023/07/30 00:17:44;;;;;;;7.38;2.45;;;17.50;99.90;;;;;;5051053;28;20293;-48
2023/07/30 00:20:10;;;;;;;12.02;3.00;;;17.40;99.90;;;;;;5051358;28;20206;-48
2023/07/30 00:22:35;;;;;;;6.38;3.00;;;17.30;99.90;;;;;;5051933;28;20183;-51
2023/07/30 00:25:01;;;;;;;7.35;2.88;;;17.30;99.90;;;;;;5053838;28;20221;-48
2023/07/30 00:27:26;;;;;;;6.68;2.65;;;17.20;99.90;;;;;;5055231;28;20180;-50
2023/07/30 00:29:52;;;;;;;7.88;3.15;;;17.20;99.90;;;;;;5055296;28;20209;-49
2023/07/30 00:32:17;;;;;;;11.27;3.33;;;17.10;99.90;;;;;;5055243;28;20232;-49
2023/07/30 00:34:44;;;;;;;5.47;3.20;;;17.10;99.90;;;;;;5055132;28;20170;-48
2023/07/30 00:37:09;;;;;;;7.72;2.78;;;17.10;99.90;;;;;;5055074;28;20218;-48
2023/07/30 00:39:35;;;;;;;11.35;3.00;;;17.20;99.90;;;;;;5055506;28;20536;-48
2023/07/30 00:42:00;;;;;;;8.55;2.97;;;17.10;99.90;;;;;;5055069;28;20630;-47
2023/07/30 00:44:26;;;;;;;8.63;2.65;;;17.10;99.90;;;;;;5055107;28;20170;-48
2023/07/30 00:46:52;;;;;;;9.27;2.83;;;17.10;99.90;;;;;;5055203;28;20530;-48
2023/07/30 00:49:18;;;;;;;6.10;2.72;;;16.90;99.90;;;;;;5054377;28;20171;-48
2023/07/30 00:51:44;;;;;;;5.07;2.50;;;17.00;99.90;;;;;;5055025;28;20500;-48
2023/07/30 00:54:10;;;;;;;13.25;3.63;;;16.90;99.90;;;;;;5054775;28;20159;-48
2023/07/30 00:56:36;;;;;;;5.70;2.90;;;17.00;99.90;;;;;;5055425;28;20252;-48
2023/07/30 00:59:02;;;;;;;9.27;3.65;;;16.90;99.90;;;;;;5054681;28;20262;-49
2023/07/30 01:01:33;;;;;;;6.85;2.65;;;16.90;99.90;;;;;;5054734;28;20194;-49
2023/07/30 01:03:58;;;;;;;8.75;3.63;;;16.90;99.90;;;;;;5054738;28;20175;-50
2023/07/30 01:06:24;;;;;;;7.10;3.20;;;17.00;99.90;;;;;;5054650;28;20764;-48
2023/07/30 01:08:49;;;;;;;5.78;2.90;;;17.00;99.90;;;;;;5054603;28;20163;-47
2023/07/30 01:11:16;;;;;;;8.35;2.90;;;17.00;99.90;;;;;;5054370;28;20249;-47
2023/07/30 01:13:42;;;;;;;4.97;3.13;;;17.00;99.90;;;;;;5054551;28;20228;-48
2023/07/30 01:16:08;;;;;;;15.52;3.70;;;17.10;99.90;;;;;;5054450;28;20166;-47
2023/07/30 01:18:34;;;;;;;8.07;2.85;;;17.10;99.90;;;;;;5054839;28;20183;-47
2023/07/30 01:21:00;;;;;;;6.68;2.92;;;17.10;99.90;;;;;;5054415;28;20194;-48
2023/07/30 01:23:26;;;;;;;6.03;3.05;;;17.20;99.90;;;;;;5054321;28;20171;-48
2023/07/30 01:26:15;;;;;;;4.40;3.08;;;17.10;99.90;;;;;;5054001;28;20194;-48
2023/07/30 01:28:46;;;;;;;12.90;3.45;;;17.20;99.90;;;;;;5052890;28;20178;-48
2023/07/30 01:31:15;;;;;;;8.15;3.22;;;17.40;99.90;;;;;;5054208;28;20252;-48
2023/07/30 01:33:41;;;;;;;12.60;3.47;;;17.40;99.90;;;;;;5054072;28;20178;-50
2023/07/30 01:36:11;;;;;;;5.97;2.63;;;17.40;99.90;;;;;;5053946;28;20569;-47
2023/07/30 01:38:38;;;;;;;6.57;3.55;;;17.40;99.90;;;;;;5053242;28;20273;-47
2023/07/30 01:41:04;;;;;;;8.60;3.58;;;17.50;99.90;;;;;;5054342;28;20213;-47
2023/07/30 01:43:30;;;;;;;7.25;3.10;;;17.60;99.90;;;;;;5053973;28;20174;-47
2023/07/30 01:45:55;;;;;;;7.22;3.22;;;17.50;99.90;;;;;;5053900;28;20204;-48
2023/07/30 01:48:21;;;;;;;11.60;3.83;;;17.60;99.90;;;;;;5053908;28;20622;-47
2023/07/30 01:50:48;;;;;;;8.98;3.92;;;17.50;99.90;;;;;;5053838;28;20193;-48
2023/07/30 01:53:14;;;;;;;8.77;3.20;;;17.50;99.90;;;;;;5053985;28;20174;-48
2023/07/30 01:55:43;;;;;;;6.72;3.22;;;17.70;99.90;;;;;;5053806;28;20540;-47
2023/07/30 01:58:09;;;;;;;9.05;3.10;;;17.70;99.90;;;;;;5053853;28;20271;-47
2023/07/30 02:00:35;;;;;;;9.02;2.97;;;17.60;99.90;;;;;;5053981;28;20175;-47
2023/07/30 02:03:00;;;;;;;6.32;3.22;;;17.70;99.90;;;;;;5053615;28;20179;-47
2023/07/30 02:05:26;;;;;;;8.45;3.38;;;17.60;99.90;;;;;;5053502;28;20171;-48
2023/07/30 02:07:52;;;;;;;5.80;2.97;;;17.70;99.90;;;;;;5053508;28;20649;-47
2023/07/30 02:10:17;;;;;;;4.38;2.72;;;17.70;99.90;;;;;;5053408;28;20167;-47
2023/07/30 02:12:43;;;;;;;5.60;2.80;;;17.70;99.90;;;;;;5053264;28;20246;-48
2023/07/30 02:15:08;;;;;;;10.60;3.10;;;17.60;99.90;;;;;;5053617;28;20174;-51
2023/07/30 02:17:34;;;;;;;6.03;3.22;;;17.70;99.90;;;;;;5053420;28;20256;-51
2023/07/30 02:19:59;;;;;;;9.65;2.72;;;17.60;99.90;;;;;;5053068;28;20525;-51
2023/07/30 02:22:25;;;;;;;7.15;2.83;;;17.60;99.90;;;;;;5053139;28;20703;-51
2023/07/30 02:24:50;;;;;;;9.45;3.47;;;17.50;99.90;;;;;;5053168;28;20166;-51
2023/07/30 02:27:16;;;;;;;8.15;3.50;;;17.60;99.90;;;;;;5053145;28;20646;-51
2023/07/30 02:29:42;;;;;;;11.23;3.20;;;17.50;99.90;;;;;;5053124;28;20187;-51
2023/07/30 02:32:08;;;;;;;10.00;3.25;;;17.60;99.90;;;;;;5053135;28;20163;-50
2023/07/30 02:34:33;;;;;;;8.57;3.50;;;17.50;99.90;;;;;;5053371;28;20177;-51
2023/07/30 02:36:59;;;;;;;7.45;2.70;;;17.60;99.90;;;;;;5052301;28;20207;-52
2023/07/30 02:39:24;;;;;;;7.38;2.65;;;17.50;99.90;;;;;;5052414;28;20253;-52
2023/07/30 02:41:50;;;;;;;6.65;2.78;;;17.50;99.90;;;;;;5052814;28;20163;-50
2023/07/30 02:44:15;;;;;;;12.27;3.20;;;17.40;99.90;;;;;;5052839;28;20166;-51
2023/07/30 02:46:41;;;;;;;8.25;2.95;;;17.40;99.90;;;;;;5051424;28;20175;-51
2023/07/30 02:49:08;;;;;;;9.07;3.28;;;17.40;99.90;;;;;;5052700;28;20167;-51
2023/07/30 02:51:33;;;;;;;7.18;3.55;;;17.40;99.90;;;;;;5052111;28;20500;-51
2023/07/30 02:54:04;;;;;;;7.75;2.83;;;17.40;99.90;;;;;;5052628;28;20169;-50
2023/07/30 02:56:29;;;;;;;8.18;2.70;;;17.40;99.90;;;;;;5052440;28;20674;-51
2023/07/30 02:58:55;;;;;;;10.43;2.78;;;17.30;99.90;;;;;;5052480;28;20202;-52
2023/07/30 03:01:20;;;;;;;9.13;3.13;;;17.30;99.90;;;;;;5052518;28;20167;-52
2023/07/30 03:03:46;;;;;;;6.13;3.05;;;17.30;99.90;;;;;;5052375;28;20614;-51
2023/07/30 03:06:11;;;;;;;7.70;3.08;;;17.30;99.90;;;;;;5052381;28;20201;-51
2023/07/30 03:08:38;;;;;;;9.60;3.60;;;17.40;99.90;;;;;;5051124;28;20167;-48
2023/07/30 03:11:04;;;;;;;10.52;3.53;;;17.30;99.90;;;;;;5052707;28;20183;-51
2023/07/30 03:13:29;;;;;;;11.43;3.47;;;17.30;99.90;;;;;;5051796;28;20185;-51
2023/07/30 03:15:55;;;;;;;9.52;3.38;;;17.40;99.90;;;;;;5052134;28;20166;-50
2023/07/30 03:18:20;;;;;;;7.05;2.95;;;17.30;99.90;;;;;;5051817;28;20206;-51
2023/07/30 03:20:46;;;;;;;8.25;3.20;;;17.10;99.90;;;;;;5051934;28;20181;-52
2023/07/30 03:23:11;;;;;;;9.63;2.67;;;17.10;99.90;;;;;;5052303;28;20166;-51
2023/07/30 03:25:37;;;;;;;5.68;2.63;;;17.00;99.90;;;;;;5052283;28;20186;-48
2023/07/30 03:28:02;;;;;;;7.93;2.78;;;17.00;99.90;;;;;;5052336;28;20175;-51
2023/07/30 03:30:28;;;;;;;5.57;2.92;;;17.00;99.90;;;;;;5051947;28;20324;-51
2023/07/30 03:32:54;;;;;;;7.63;2.30;;;17.00;99.90;;;;;;5051760;28;20178;-51
2023/07/30 03:35:19;;;;;;;7.05;2.55;;;16.90;99.90;;;;;;5051813;28;20182;-51
2023/07/30 03:37:45;;;;;;;7.28;2.53;;;16.90;99.90;;;;;;5051697;28;20215;-49
2023/07/30 03:40:10;;;;;;;5.95;2.05;;;16.80;99.90;;;;;;5051765;28;20167;-51
2023/07/30 03:42:36;;;;;;;4.55;2.30;;;16.80;99.90;;;;;;5050800;28;20539;-51
2023/07/30 03:45:01;;;;;;;6.63;2.28;;;16.80;99.90;;;;;;5052000;28;20171;-50
2023/07/30 03:47:27;;;;;;;4.97;2.60;;;16.70;99.90;;;;;;5051483;28;20177;-51
2023/07/30 03:49:52;;;;;;;5.18;2.33;;;16.70;99.90;;;;;;5051434;28;20235;-51
2023/07/30 03:52:18;;;;;;;4.72;1.80;;;16.70;99.90;;;;;;5051639;28;20167;-51
2023/07/30 03:54:43;;;;;;;6.53;2.35;;;16.70;99.90;;;;;;5051641;28;20170;-48
2023/07/30 03:57:09;;;;;;;6.38;2.00;;;16.70;99.90;;;;;;5051491;28;20213;-47
2023/07/30 03:59:35;;;;;;;5.82;1.85;;;16.70;99.90;;;;;;5051740;28;20162;-47
2023/07/30 04:02:00;;;;;;;3.78;1.77;;;16.60;99.90;;;;;;5051707;28;20173;-48
2023/07/30 04:04:26;;;;;;;6.47;1.95;;;16.60;99.90;;;;;;5051496;28;20213;-48
2023/07/30 04:06:51;;;;;;;5.85;2.25;;;16.60;99.90;;;;;;5051426;28;20163;-47
2023/07/30 04:09:17;;;;;;;6.88;2.08;;;16.70;99.90;;;;;;5051381;28;20175;-47
2023/07/30 04:11:42;;;;;;;4.45;2.03;;;16.70;99.90;;;;;;5051261;28;20268;-47
2023/07/30 04:14:08;;;;;;;7.53;2.53;;;16.70;99.90;;;;;;5051279;28;20190;-47
2023/07/30 04:16:34;;;;;;;2.67;1.75;;;16.70;99.90;;;;;;5051578;28;20630;-48
2023/07/30 04:19:00;;;;;;;4.18;2.60;;;16.70;99.90;;;;;;5051209;28;20223;-48
2023/07/30 04:21:25;;;;;;;7.50;2.53;;;16.70;99.90;;;;;;5051293;28;20174;-47
2023/07/30 04:23:51;;;;;;;6.70;2.17;;;16.70;99.90;;;;;;5051314;28;20619;-47
2023/07/30 04:26:17;;;;;;;5.93;2.00;;;16.70;99.90;;;;;;5050185;28;20208;-47
2023/07/30 04:28:43;;;;;;;8.57;2.42;;;16.60;99.90;;;;;;5049937;28;20170;-47
2023/07/30 04:31:08;;;;;;;8.15;2.13;;;16.70;99.90;;;;;;5051277;28;20163;-48
2023/07/30 04:33:34;;;;;;;5.00;1.95;;;16.70;99.90;;;;;;5050370;28;20196;-47
2023/07/30 04:35:59;;;;;;;6.28;2.35;;;16.70;99.90;;;;;;5051115;28;20167;-47
2023/07/30 04:38:25;;;;;;;4.97;2.50;;;16.70;99.90;;;;;;5051293;28;20256;-47
2023/07/30 04:40:50;;;;;;;7.32;2.38;;;16.70;99.90;;;;;;5051085;28;20241;-47
2023/07/30 04:43:16;;;;;;;11.80;2.85;;;16.70;99.90;;;;;;5051126;28;20565;-47
2023/07/30 04:45:42;;;;;;;4.88;2.13;;;16.70;99.90;;;;;;5051341;28;20665;-47
2023/07/30 04:48:08;;;;;;;4.97;2.28;;;16.70;99.90;;;;;;5050818;28;20182;-47
2023/07/30 04:50:34;;;;;;;7.93;2.70;;;16.80;99.90;;;;;;5051380;28;20254;-49
2023/07/30 04:52:59;;;;;;;4.25;2.10;;;16.80;99.90;;;;;;5051102;28;20163;-49
2023/07/30 04:55:25;;;;;;;4.90;2.15;;;16.80;99.90;;;;;;5050874;28;20170;-49
2023/07/30 04:57:50;;;;;;;7.15;1.92;;;16.90;99.90;;;;;;5051102;28;20256;-49
2023/07/30 05:00:16;;;;;;;8.55;2.08;;;16.90;99.90;;;;;;5051047;28;20155;-49
2023/07/30 05:02:42;;;;;;;5.65;2.20;;;16.90;99.90;;;;;;5051265;28;20258;-48
2023/07/30 05:05:08;;;;;;;4.45;1.70;;;16.90;99.90;;;;;;5051164;28;20167;-48
2023/07/30 05:07:34;;;;;;;5.72;1.75;;;16.80;99.90;;;;;;5051345;28;20167;-50
2023/07/30 05:09:59;;;;;;;3.40;1.75;;;16.70;99.90;;;;;;5051401;28;20528;-50
2023/07/30 05:12:25;;;;;;;6.85;1.90;;;16.60;99.90;;;;;;5054419;28;20214;-49
2023/07/30 05:14:50;;;;;;;4.05;1.35;;;16.60;99.90;;;;;;5054643;28;20205;-48
2023/07/30 05:17:16;;;;;;;6.25;1.80;;;16.60;99.90;;;;;;5054164;28;20234;-50
2023/07/30 05:19:41;;;;;;;3.00;1.63;;;16.60;99.90;;;;;;5054304;28;20178;-48
2023/07/30 05:22:07;;;;;;;5.07;1.92;;;16.60;99.90;;;;;;5054415;28;20212;-49
2023/07/30 05:24:33;;;;;;;4.70;1.88;;;16.70;99.90;;;;;;5055113;28;20175;-48
2023/07/30 05:26:59;;;;;;;4.13;1.67;;;16.70;99.90;;;;;;5054264;28;20253;-50
2023/07/30 05:29:24;;;;;;;7.63;1.75;;;16.70;99.90;;;;;;5054272;28;20174;-51
2023/07/30 05:31:50;;;;;;;6.78;2.10;;;16.70;99.90;;;;;;5054167;28;20630;-50
2023/07/30 05:34:15;;;;;;;5.97;2.08;;;16.80;99.90;;;;;;5053986;28;20250;-51
2023/07/30 05:36:41;;;;;;;4.18;1.45;;;16.80;99.90;;;;;;5054099;28;20285;-48
2023/07/30 05:39:06;;;;;;;8.05;1.80;;;16.70;99.90;;;;;;5054043;28;20163;-48
2023/07/30 05:41:32;;;;;;;3.03;1.55;;;16.80;99.90;;;;;;5053144;28;20626;-48
2023/07/30 05:43:57;;;;;;;7.38;1.95;;;16.80;99.90;;;;;;5054100;28;20178;-48
2023/07/30 05:46:23;;;;;;;6.05;1.70;;;16.60;99.90;;;;;;5053812;28;20614;-48
2023/07/30 05:48:48;;;;;;;3.75;1.92;;;16.70;99.90;;;;;;5038467;28;20756;-49
2023/07/30 05:51:14;;;;;;;3.03;1.52;;;16.80;99.90;;;;;;5053847;28;20579;-51
2023/07/30 05:53:39;;;;;;;7.22;2.22;;;16.80;99.90;;;;;;5053829;28;20646;-51
2023/07/30 05:56:05;;;;;;;4.60;1.67;;;16.80;99.90;;;;;;5054201;28;20653;-51
2023/07/30 05:58:31;;;;;;;6.75;1.70;;;16.70;99.90;;;;;;5053650;28;20212;-50
2023/07/30 06:00:56;;;;;;;2.95;1.65;;;16.80;99.90;;;;;;5053686;28;20193;-50
2023/07/30 06:03:22;;;;;;;6.07;1.90;;;16.80;99.90;;;;;;5053636;28;20576;-50
2023/07/30 06:05:48;;;;;;;3.58;1.63;;;16.70;99.90;;;;;;5053637;28;20249;-51
2023/07/30 06:08:13;;;;;;;5.20;1.77;;;16.70;99.90;;;;;;5053799;28;20167;-50
2023/07/30 06:10:40;;;;;;;5.20;1.73;;;16.70;99.90;;;;;;5053585;28;20630;-51
2023/07/30 06:13:06;;;;;;;4.05;1.70;;;16.90;99.90;;;;;;5053764;28;20301;-51
2023/07/30 06:15:33;;;;;;;7.20;2.38;;;16.90;99.90;;;;;;5053935;28;20603;-51
2023/07/30 06:18:00;;;;;;;4.93;1.90;;;16.90;99.90;;;;;;5052987;28;20674;-48
2023/07/30 06:20:25;;;;;;;10.82;2.03;;;17.10;99.90;;;;;;5053255;28;20627;-48
2023/07/30 06:22:51;;;;;;;2.13;1.38;;;17.10;99.90;;;;;;5052830;28;20248;-51
2023/07/30 06:25:16;;;;;;;5.75;1.80;;;17.10;99.90;;;;;;5053085;28;20167;-52
2023/07/30 06:27:42;;;;;;;4.15;1.58;;;17.10;99.90;;;;;;5053053;28;20181;-51
2023/07/30 06:30:08;;;;;;;7.78;2.00;;;17.10;99.90;;;;;;5053037;28;20182;-51
2023/07/30 06:32:34;;;;;;;4.63;1.67;;;17.10;99.90;;;;;;5051209;28;20179;-50
2023/07/30 06:34:59;;;;;;;7.20;2.05;;;17.10;99.90;;;;;;5051816;28;20174;-51
2023/07/30 06:37:25;;;;;;;6.43;1.77;;;17.20;99.90;;;;;;5051298;28;20202;-51
2023/07/30 06:39:50;;;;;;;7.18;2.35;;;17.20;99.90;;;;;;5051330;28;20247;-50
2023/07/30 06:42:16;;;;;;;4.30;1.83;;;17.30;99.90;;;;;;5051409;28;20171;-50
2023/07/30 06:44:42;;;;;;;5.93;2.00;;;17.30;99.90;;;;;;5051257;28;20166;-51
2023/07/30 06:47:07;;;;;;;5.40;1.92;;;17.30;99.90;;;;;;5051042;28;20183;-51
2023/07/30 06:49:34;;;;;;;4.85;1.83;;;17.30;99.90;;;;;;5051412;28;20181;-51
2023/07/30 06:52:00;;;;;;;3.60;1.77;;;17.40;99.90;;;;;;5051223;28;20218;-48
2023/07/30 06:54:26;;;;;;;3.17;1.92;;;17.50;99.90;;;;;;5051179;28;20171;-47
2023/07/30 06:56:51;;;;;;;7.68;2.08;;;17.60;99.90;;;;;;5051100;28;20275;-48
2023/07/30 06:59:17;;;;;;;3.75;1.70;;;17.60;99.90;;;;;;5050653;28;20253;-51
2023/07/30 07:01:42;;;;;;;7.20;2.28;;;17.60;99.90;;;;;;5050874;28;20171;-50
2023/07/30 07:04:08;;;;;;;7.75;2.10;;;17.60;99.90;;;;;;5050911;28;20229;-51
2023/07/30 07:06:35;;;;;;;5.28;2.38;;;17.80;99.90;;;;;;5051235;28;20170;-47
2023/07/30 07:09:00;;;;;;;10.52;2.72;;;17.80;99.90;;;;;;5050818;28;20178;-48
2023/07/30 07:11:26;;;;;;;5.90;2.13;;;17.80;99.90;;;;;;5050087;28;20276;-51
2023/07/30 07:13:51;;;;;;;5.65;1.95;;;17.80;99.90;;;;;;5050649;28;20200;-50
2023/07/30 07:16:18;;;;;;;6.78;2.17;;;17.80;99.90;;;;;;5050470;28;20229;-50
2023/07/30 07:18:44;;;;;;;9.90;2.40;;;17.90;99.90;;;;;;5050625;28;20246;-51
2023/07/30 07:21:10;;;;;;;4.80;2.00;;;17.90;99.90;;;;;;5050659;28;20234;-51
2023/07/30 07:23:36;;;;;;;10.70;2.60;;;17.80;99.90;;;;;;5050585;28;20669;-48
2023/07/30 07:26:01;;;;;;;9.50;2.47;;;17.80;99.90;;;;;;5050523;28;20202;-49
2023/07/30 07:28:27;;;;;;;9.57;1.92;;;17.80;99.90;;;;;;5050313;28;20174;-47
2023/07/30 07:30:54;;;;;;;8.75;2.47;;;17.60;99.90;;;;;;5050260;28;20254;-49
2023/07/30 07:33:19;;;;;;;6.20;2.35;;;17.70;99.90;;;;;;5049849;28;20154;-47
2023/07/30 07:35:45;;;;;;;8.23;2.80;;;17.90;99.90;;;;;;5050654;28;20182;-47
2023/07/30 07:38:11;;;;;;;10.02;2.10;;;17.90;99.90;;;;;;5050385;28;20231;-48
2023/07/30 07:40:39;;;;;;;8.27;2.50;;;18.00;99.90;;;;;;5050017;28;20163;-48
2023/07/30 07:43:06;;;;;;;6.78;2.38;;;18.00;99.90;;;;;;5050489;28;20650;-47
2023/07/30 07:45:31;;;;;;;4.57;2.08;;;16.70;99.90;;;;;;5050442;28;20611;-47
2023/07/30 07:47:57;;;;;;;10.15;2.45;;;18.00;99.90;;;;;;5050000;28;20224;-48
2023/07/30 07:50:23;;;;;;;8.05;2.33;;;17.90;99.90;;;;;;5049768;28;20174;-48
2023/07/30 07:52:48;;;;;;;7.10;2.00;;;17.90;99.90;;;;;;5048845;28;20547;-48
2023/07/30 07:55:14;;;;;;;11.13;2.30;;;17.90;99.90;;;;;;5049981;28;20167;-47
2023/07/30 07:57:39;;;;;;;10.63;3.03;;;18.10;99.90;;;;;;5049982;28;20615;-47
2023/07/30 08:00:06;;;;;;;10.07;3.00;;;18.30;99.90;;;;;;5049342;28;20171;-49
2023/07/30 08:02:32;;;;;;;8.63;2.10;;;18.50;99.90;;;;;;5050522;28;20178;-47
2023/07/30 08:04:57;;;;;;;10.27;2.58;;;18.50;99.90;;;;;;5049704;28;20163;-47
2023/07/30 08:07:23;;;;;;;10.23;2.90;;;18.60;99.90;;;;;;5049381;28;20531;-47
2023/07/30 08:09:49;;;;;;;6.97;2.38;;;18.60;99.90;;;;;;5049612;28;20548;-47
2023/07/30 08:12:14;;;;;;;10.35;2.47;;;18.60;99.90;;;;;;5049740;28;20233;-47
2023/07/30 08:14:40;;;;;;;9.52;3.13;;;18.40;99.90;;;;;;5049717;28;20315;-47
2023/07/30 08:17:05;;;;;;;9.55;2.50;;;18.30;99.90;;;;;;5049883;28;20280;-48
2023/07/30 08:19:31;;;;;;;11.15;2.88;;;18.10;99.90;;;;;;5050370;28;20198;-47
2023/07/30 08:21:58;;;;;;;11.93;3.42;;;18.10;99.90;;;;;;5049676;28;20249;-47
2023/07/30 08:24:24;;;;;;;9.52;2.88;;;18.10;99.90;;;;;;5049766;28;20177;-47
2023/07/30 08:26:50;;;;;;;10.85;3.10;;;18.10;99.90;;;;;;5049679;28;20170;-47
2023/07/30 08:29:15;;;;;;;11.60;3.20;;;18.20;99.90;;;;;;5049650;28;20177;-47
2023/07/30 08:31:41;;;;;;;11.35;3.00;;;18.40;99.90;;;;;;5049728;28;20959;-47
2023/07/30 08:34:07;;;;;;;9.35;3.40;;;18.50;99.90;;;;;;5049536;28;20642;-52
2023/07/30 08:36:32;;;;;;;11.80;2.88;;;18.50;99.90;;;;;;5049877;28;20170;-48
2023/07/30 08:38:58;;;;;;;10.23;3.17;;;18.70;99.90;;;;;;5049038;28;20270;-48
2023/07/30 08:41:24;;;;;;;10.52;2.63;;;19.00;99.90;;;;;;5049195;28;20171;-51
2023/07/30 08:43:51;;;;;;;12.70;2.95;;;19.10;99.90;;;;;;5049576;28;20172;-51
2023/07/30 08:46:17;;;;;;;10.23;2.72;;;19.10;99.90;;;;;;5052155;28;20516;-51
2023/07/30 08:48:43;;;;;;;7.78;2.67;;;19.20;99.90;;;;;;5053506;28;20177;-49
2023/07/30 08:51:11;;;;;;;9.52;2.92;;;19.20;99.90;;;;;;5053327;28;20166;-50
2023/07/30 08:53:37;;;;;;;9.40;2.55;;;19.10;99.90;;;;;;5053394;28;20278;-51
2023/07/30 08:56:04;;;;;;;10.43;2.60;;;19.00;99.90;;;;;;5053243;28;20674;-51
2023/07/30 08:58:34;;;;;;;10.65;2.72;;;19.10;99.90;;;;;;5052698;28;20264;-47
2023/07/30 09:01:06;;;;;;;9.55;2.60;;;19.00;99.90;;;;;;5052870;28;20186;-47
2023/07/30 09:03:37;;;;;;;11.90;2.80;;;19.10;99.90;;;;;;5053588;28;20194;-48
2023/07/30 09:06:03;;;;;;;11.40;2.33;;;19.00;99.90;;;;;;5053459;28;20174;-47
2023/07/30 09:08:29;;;;;;;9.48;2.58;;;18.90;99.90;;;;;;5052744;28;20193;-51
2023/07/30 09:10:55;;;;;;;4.50;2.10;;;18.80;99.90;;;;;;5052873;28;20225;-50
2023/07/30 09:13:24;;;;;;;8.02;2.80;;;18.80;99.90;;;;;;5052687;28;20206;-50
2023/07/30 09:15:50;;;;;;;8.80;2.60;;;18.80;99.90;;;;;;5052827;28;20574;-49
2023/07/30 09:18:18;;;;;;;10.60;2.80;;;18.70;99.90;;;;;;5052692;28;20207;-51
2023/07/30 09:20:44;;;;;;;8.25;2.83;;;18.70;99.90;;;;;;5052643;28;20162;-51
2023/07/30 09:23:11;;;;;;;10.80;2.85;;;18.90;99.90;;;;;;5052779;28;20185;-50
2023/07/30 09:25:37;;;;;;;12.10;2.70;;;19.40;99.90;;;;;;5052719;28;20649;-47
2023/07/30 09:28:03;;;;;;;20.20;2.97;;;19.50;99.90;;;;;;5052968;28;20171;-51
2023/07/30 09:30:29;;;;;;;14.23;3.00;;;19.80;99.90;;;;;;5052804;28;20630;-51
2023/07/30 09:32:56;;;;;;;7.75;2.65;;;20.50;99.90;;;;;;5052589;28;20948;-51
2023/07/30 09:35:24;;;;;;;9.93;2.75;;;20.80;99.90;;;;;;5052814;28;20312;-51
2023/07/30 09:37:57;;;;;;;7.68;3.10;;;20.80;99.90;;;;;;5052424;28;20218;-51
2023/07/30 09:40:31;;;;;;;7.53;2.83;;;20.50;99.90;;;;;;5052083;28;20197;-51
2023/07/30 09:42:57;;;;;;;7.80;2.80;;;20.50;99.90;;;;;;5052456;28;20637;-51
2023/07/30 09:45:24;;;;;;;8.40;2.35;;;20.60;99.90;;;;;;5052316;28;20216;-51
2023/07/30 09:47:57;;;;;;;9.55;2.53;;;18.90;99.90;;;;;;5052181;28;20273;-49
2023/07/30 09:50:23;;;;;;;8.80;2.40;;;20.50;99.90;;;;;;5052193;28;20225;-52
2023/07/30 09:52:49;;;;;;;6.57;2.22;;;20.20;99.90;;;;;;5051181;28;20635;-51
2023/07/30 09:55:15;;;;;;;10.55;2.38;;;20.20;99.90;;;;;;5051403;28;20177;-51
2023/07/30 09:57:41;;;;;;;12.98;2.70;;;20.60;99.90;;;;;;5048597;28;20561;-51
2023/07/30 10:00:10;;;;;;;7.53;2.58;;;20.60;99.90;;;;;;5050825;28;20257;-50
2023/07/30 10:02:44;;;;;;;7.45;2.30;;;20.30;99.90;;;;;;5051160;28;20220;-51
2023/07/30 10:05:20;;;;;;;11.15;2.88;;;20.60;99.90;;;;;;5050486;28;20213;-51
2023/07/30 10:07:59;;;;;;;7.63;2.25;;;20.70;99.90;;;;;;5043211;28;20177;-48
2023/07/30 10:10:25;;;;;;;8.48;2.25;;;21.30;99.90;;;;;;5050736;28;20198;-48
2023/07/30 10:12:52;;;;;;;10.75;2.67;;;21.00;99.90;;;;;;5050957;28;20256;-51
2023/07/30 10:15:21;;;;;;;9.27;2.67;;;21.30;99.90;;;;;;5049374;28;20206;-51
2023/07/30 10:17:46;;;;;;;10.02;2.50;;;21.40;99.90;;;;;;5049884;28;20272;-50
2023/07/30 10:20:38;;;;;;;8.80;2.13;;;21.60;99.90;;;;;;5050791;28;20563;-51
2023/07/30 10:23:05;;;;;;;10.23;3.03;;;21.20;99.90;;;;;;5046065;28;20209;-48
2023/07/30 10:25:45;;;;;;;5.57;2.17;;;21.20;99.90;;;;;;5047376;28;20182;-51
2023/07/30 10:28:29;;;;;;;6.63;2.08;;;20.70;99.90;;;;;;5043834;28;20179;-51
2023/07/30 10:31:01;;;;;;;6.22;2.28;;;20.80;99.90;;;;;;5049770;28;20183;-49
2023/07/30 10:33:50;;;;;;;6.93;1.98;;;20.80;99.90;;;;;;5044970;28;20657;-50
2023/07/30 10:36:18;;;;;;;7.10;2.20;;;21.10;99.90;;;;;;5045400;28;20190;-50
2023/07/30 10:38:45;;;;;;;4.63;2.30;;;21.40;99.90;;;;;;5046574;28;20206;-49
2023/07/30 10:41:13;;;;;;;19.15;1.80;;;21.60;99.90;;;;;;5049577;28;20782;-51
2023/07/30 10:43:42;;;;;;;4.18;1.92;;;21.50;99.90;;;;;;5049929;28;20805;-50
2023/07/30 10:46:10;;;;;;;4.00;1.70;;;21.50;99.90;;;;;;5048462;28;20185;-51
2023/07/30 10:48:37;;;;;;;5.90;1.77;;;21.70;99.90;;;;;;5048846;28;20217;-48
2023/07/30 10:51:05;;;;;;;6.60;2.05;;;21.90;99.90;;;;;;5049734;28;20170;-51
2023/07/30 10:53:31;;;;;;;10.85;2.92;;;22.00;99.90;;;;;;5049915;28;20166;-51
2023/07/30 10:56:02;;;;;;;7.85;2.05;;;21.70;99.90;;;;;;5050222;28;20220;-49
2023/07/30 10:58:30;;;;;;;4.22;1.85;;;21.90;99.90;;;;;;5046931;28;21925;-49
2023/07/30 11:00:56;;;;;;;6.90;1.75;;;21.70;99.90;;;;;;5046239;28;20258;-48
2023/07/30 11:03:25;;;;;;;5.68;1.80;;;21.50;99.90;;;;;;5045119;28;20261;-49
2023/07/30 11:05:51;;;;;;;5.72;1.85;;;21.50;99.90;;;;;;5050076;28;20580;-51
2023/07/30 11:08:16;;;;;;;5.45;1.85;;;21.60;99.90;;;;;;5047757;28;20179;-48
2023/07/30 11:10:49;;;;;;;2.40;1.63;;;21.50;99.90;;;;;;5049517;28;20216;-48
2023/07/30 11:13:15;;;;;;;5.63;1.90;;;21.60;99.90;;;;;;5048622;28;20712;-51
2023/07/30 11:15:44;;;;;;;7.75;2.33;;;21.90;99.90;;;;;;5049777;28;20167;-51
2023/07/30 11:18:11;;;;;;;9.38;2.25;;;21.80;99.90;;;;;;5048251;28;20308;-51
2023/07/30 11:20:37;;;;;;;7.93;2.10;;;21.50;99.90;;;;;;5044928;28;20178;-48
2023/07/30 11:23:16;;;;;;;6.57;1.85;;;21.20;99.90;;;;;;5047753;28;20178;-47
2023/07/30 11:25:45;;;;;;;3.80;1.52;;;21.30;99.90;;;;;;5048599;28;20202;-49
2023/07/30 11:28:11;;;;;;;4.47;2.08;;;21.30;99.90;;;;;;5045244;28;20676;-49
2023/07/30 11:30:37;;;;;;;7.80;2.55;;;21.80;99.90;;;;;;5049693;28;20163;-49
2023/07/30 11:33:02;;;;;;;6.90;2.15;;;22.10;99.90;;;;;;5050241;28;20162;-49
2023/07/30 11:35:28;;;;;;;6.32;1.70;;;22.50;99.90;;;;;;5049303;28;20308;-48
2023/07/30 11:37:54;;;;;;;4.68;1.67;;;22.50;99.90;;;;;;5047517;28;20205;-49
2023/07/30 11:40:21;;;;;;;4.03;1.70;;;22.40;99.90;;;;;;5047023;28;20189;-47
2023/07/30 11:42:47;;;;;;;5.07;2.15;;;22.40;99.90;;;;;;5048660;28;20178;-48
2023/07/30 11:45:24;;;;;;;7.88;2.22;;;22.20;99.90;;;;;;5046755;28;20170;-49
2023/07/30 11:47:50;;;;;;;12.05;2.22;;;22.10;99.90;;;;;;5048377;28;20197;-51
2023/07/30 11:50:17;;;;;;;7.18;2.10;;;22.00;99.90;;;;;;5040612;28;20538;-47
2023/07/30 11:52:56;;;;;;;5.85;2.42;;;22.00;99.90;;;;;;5049277;28;20174;-51
2023/07/30 11:55:24;;;;;;;9.02;2.15;;;21.90;99.90;;;;;;5051735;28;20630;-49
2023/07/30 11:57:50;;;;;;;9.77;2.25;;;21.60;99.90;;;;;;5048375;28;20252;-47
2023/07/30 12:00:16;;;;;;;5.78;1.75;;;21.20;99.90;;;;;;5049058;28;20171;-51
2023/07/30 12:02:42;;;;;;;4.70;2.10;;;20.40;99.90;;;;;;5049086;28;20221;-47
2023/07/30 12:05:11;;;;;;;5.82;1.95;;;19.70;99.90;;;;;;5048983;28;20189;-47
2023/07/30 12:07:41;;;;;;;6.03;1.90;;;19.30;99.90;;;;;;5036841;28;20187;-46
2023/07/30 12:10:08;;;;;;;5.57;2.03;;;19.30;99.90;;;;;;5047545;28;20179;-48
2023/07/30 12:12:34;;;;;;;5.93;2.00;;;19.20;99.90;;;;;;5049457;28;20233;-50
2023/07/30 12:14:59;;;;;;;8.57;2.08;;;19.40;99.90;;;;;;5045927;28;20577;-48
2023/07/30 12:17:25;;;;;;;5.97;1.88;;;19.60;99.90;;;;;;5048617;28;20206;-48
2023/07/30 12:19:50;;;;;;;7.40;2.10;;;19.70;99.90;;;;;;5052913;28;20200;-50
2023/07/30 12:22:16;;;;;;;4.05;2.15;;;20.20;99.90;;;;;;5055931;28;20158;-50
2023/07/30 12:24:42;;;;;;;9.32;2.42;;;20.50;99.90;;;;;;5055923;28;20174;-50
2023/07/30 12:27:08;;;;;;;8.57;1.83;;;20.50;99.90;;;;;;5055967;28;20159;-49
2023/07/30 12:29:33;;;;;;;7.00;2.03;;;20.60;99.90;;;;;;5056462;28;20178;-51
2023/07/30 12:31:59;;;;;;;3.92;1.83;;;20.60;99.90;;;;;;5055267;28;20526;-47
2023/07/30 12:34:25;;;;;;;8.02;2.10;;;20.90;99.90;;;;;;5055471;28;20186;-48
2023/07/30 12:36:51;;;;;;;7.13;2.42;;;21.00;99.90;;;;;;5055821;28;20170;-47
2023/07/30 12:39:16;;;;;;;8.90;2.50;;;21.10;99.90;;;;;;5055045;28;20540;-48
2023/07/30 12:41:42;;;;;;;7.35;2.17;;;21.00;99.90;;;;;;5054369;28;20178;-47